Time;durP1;ratioP1;P1;durP2;ratioP2;P2;SDS_P1;SDS_P2;PMS_P1;PMS_P2;Temp;Humidity;BMP_temperature;BMP_pressure;BME280_temperature;BME280_humidity;BME280_pressure;Samples;Min_cycle;Max_cycle;Signal;HPM_P1;HPM_P2
2023/05/21 00:01:47;;;;;;;10.50;3.85;;;9.90;99.90;;;;;;5067430;28;20044;-56
2023/05/21 00:04:16;;;;;;;5.35;2.95;;;9.80;99.90;;;;;;5066617;28;20515;-57
2023/05/21 00:06:44;;;;;;;6.70;3.50;;;9.80;99.90;;;;;;5060379;28;20052;-57
2023/05/21 00:09:12;;;;;;;11.43;3.30;;;9.80;99.90;;;;;;5078061;28;20111;-58
2023/05/21 00:11:40;;;;;;;8.52;3.47;;;9.80;99.90;;;;;;5077082;28;20036;-58
2023/05/21 00:14:08;;;;;;;19.15;4.07;;;9.80;99.90;;;;;;5068007;28;20052;-59
2023/05/21 00:16:36;;;;;;;6.68;3.75;;;;;;;;;;5078860;28;20051;-58
2023/05/21 00:19:05;;;;;;;7.30;3.90;;;9.70;99.90;;;;;;5066253;28;20387;-58
2023/05/21 00:21:36;;;;;;;11.20;3.83;;;9.60;99.90;;;;;;5061621;28;20058;-57
2023/05/21 00:24:04;;;;;;;9.50;3.80;;;9.60;99.90;;;;;;5067071;28;20044;-57
2023/05/21 00:26:32;;;;;;;6.82;3.05;;;9.50;99.90;;;;;;5065695;28;20044;-55
2023/05/21 00:29:00;;;;;;;9.02;3.80;;;9.50;99.90;;;;;;5063421;28;20048;-57
2023/05/21 00:31:28;;;;;;;9.45;3.78;;;9.40;99.90;;;;;;5067045;28;20048;-58
2023/05/21 00:33:55;;;;;;;8.65;3.92;;;9.40;99.90;;;;;;5067616;28;20052;-56
2023/05/21 00:36:24;;;;;;;7.82;3.10;;;9.30;99.90;;;;;;5057338;28;20053;-58
2023/05/21 00:38:52;;;;;;;9.30;3.58;;;7.10;99.90;;;;;;5057918;28;20546;-59
2023/05/21 00:41:21;;;;;;;7.68;3.45;;;9.30;99.90;;;;;;5064163;28;20043;-59
2023/05/21 00:43:51;;;;;;;10.85;4.63;;;9.20;99.90;;;;;;5057160;28;20055;-59
2023/05/21 00:46:21;;;;;;;8.30;3.58;;;9.20;99.90;;;;;;5068137;28;20051;-58
2023/05/21 00:48:49;;;;;;;;;;;9.10;99.90;;;;;;5057298;28;20049;-58
2023/05/21 00:51:17;;;;;;;6.65;3.08;;;9.10;99.90;;;;;;5062722;28;19927;-58
2023/05/21 00:53:48;;;;;;;10.80;4.15;;;9.10;99.90;;;;;;5067578;28;20060;-57
2023/05/21 00:56:16;;;;;;;7.78;4.05;;;9.00;99.90;;;;;;5065486;28;20400;-58
2023/05/21 00:58:44;;;;;;;8.43;3.78;;;9.00;99.90;;;;;;5065692;28;20041;-58
2023/05/21 01:01:12;;;;;;;9.90;3.90;;;9.00;99.90;;;;;;5061780;28;20040;-57
2023/05/21 01:03:41;;;;;;;11.30;3.70;;;8.90;99.90;;;;;;5052894;28;20424;-57
2023/05/21 01:06:10;;;;;;;10.10;3.72;;;9.00;99.90;;;;;;5053223;28;20075;-58
2023/05/21 01:08:40;;;;;;;9.02;3.85;;;8.90;99.90;;;;;;5072265;28;20395;-58
2023/05/21 01:11:09;;;;;;;9.25;3.53;;;8.90;99.90;;;;;;5086565;28;20052;-58
2023/05/21 01:13:40;;;;;;;8.60;3.78;;;8.90;99.90;;;;;;5075406;28;20535;-56
2023/05/21 01:16:09;;;;;;;7.63;4.00;;;8.90;99.90;;;;;;5069721;28;20418;-57
2023/05/21 01:18:38;;;;;;;6.70;3.60;;;8.80;99.90;;;;;;5074581;28;20063;-57
2023/05/21 01:21:08;;;;;;;6.30;3.40;;;8.80;99.90;;;;;;5072205;28;20052;-57
2023/05/21 01:23:36;;;;;;;10.60;3.90;;;8.80;99.90;;;;;;5057473;28;20111;-57
2023/05/21 01:26:06;;;;;;;8.43;4.10;;;8.80;99.90;;;;;;5056912;28;20523;-57
2023/05/21 01:28:33;;;;;;;8.95;3.85;;;8.70;99.90;;;;;;5070019;28;20570;-57
2023/05/21 01:31:27;;;;;;;9.73;4.22;;;8.70;99.90;;;;;;5056331;28;20048;-57
2023/05/21 01:34:00;;;;;;;7.72;3.33;;;8.60;99.90;;;;;;5055963;28;20048;-56
2023/05/21 01:36:34;;;;;;;8.43;3.78;;;8.60;99.90;;;;;;5065087;28;20111;-57
2023/05/21 01:39:15;;;;;;;8.32;3.80;;;8.60;99.90;;;;;;5066799;28;20044;-57
2023/05/21 01:41:45;;;;;;;10.88;3.85;;;8.60;99.90;;;;;;5064909;28;20040;-57
2023/05/21 01:44:16;;;;;;;6.25;3.10;;;8.50;99.90;;;;;;5056139;28;20045;-57
2023/05/21 01:46:45;;;;;;;8.85;3.42;;;8.50;99.90;;;;;;5065940;28;20051;-57
2023/05/21 01:49:14;;;;;;;12.68;3.80;;;8.50;99.90;;;;;;5073497;28;20048;-57
2023/05/21 01:51:42;;;;;;;7.10;3.58;;;8.40;99.90;;;;;;5071329;28;20041;-56
2023/05/21 01:54:10;;;;;;;7.35;3.42;;;8.40;99.90;;;;;;5074165;28;20040;-57
2023/05/21 01:56:38;;;;;;;4.47;2.85;;;8.40;99.90;;;;;;5071250;28;20044;-57
2023/05/21 01:59:06;;;;;;;9.73;3.35;;;8.30;99.90;;;;;;5054158;28;20072;-57
2023/05/21 02:01:34;;;;;;;6.13;2.95;;;8.30;99.90;;;;;;5055263;28;20053;-56
2023/05/21 02:04:02;;;;;;;9.60;3.60;;;8.20;99.90;;;;;;5072658;28;20491;-57
2023/05/21 02:06:30;;;;;;;7.25;3.38;;;8.30;99.90;;;;;;5073677;28;20044;-57
2023/05/21 02:08:58;;;;;;;5.40;3.08;;;8.20;99.90;;;;;;5073892;28;20071;-56
2023/05/21 02:11:26;;;;;;;6.05;2.97;;;8.20;99.90;;;;;;5062244;28;20064;-57
2023/05/21 02:13:56;;;;;;;7.80;3.50;;;8.10;99.90;;;;;;5073160;28;20404;-58
2023/05/21 02:16:25;;;;;;;6.25;3.58;;;8.10;99.90;;;;;;5075939;28;20033;-57
2023/05/21 02:18:56;;;;;;;7.57;3.22;;;8.10;99.90;;;;;;5073686;28;20635;-58
2023/05/21 02:21:24;;;;;;;4.90;3.08;;;8.00;99.90;;;;;;5068755;28;20051;-57
2023/05/21 02:23:51;;;;;;;6.65;3.50;;;8.00;99.90;;;;;;5052839;28;20049;-58
2023/05/21 02:26:21;;;;;;;6.65;3.22;;;8.00;99.90;;;;;;5073058;28;20044;-57
2023/05/21 02:28:49;;;;;;;9.10;2.97;;;8.00;99.90;;;;;;5071441;28;20056;-57
2023/05/21 02:31:16;;;;;;;7.03;3.17;;;7.90;99.90;;;;;;5070822;28;20059;-56
2023/05/21 02:33:45;;;;;;;6.88;3.22;;;7.90;99.90;;;;;;5072911;28;20381;-56
2023/05/21 02:36:14;;;;;;;8.43;3.25;;;7.90;99.90;;;;;;5071818;28;20064;-57
2023/05/21 02:38:42;;;;;;;8.00;3.33;;;7.80;99.90;;;;;;5053359;28;20049;-55
2023/05/21 02:41:11;;;;;;;5.45;2.78;;;7.80;99.90;;;;;;5060427;28;20304;-57
2023/05/21 02:43:39;;;;;;;9.32;3.10;;;7.80;99.90;;;;;;5071691;28;20059;-57
2023/05/21 02:46:07;;;;;;;7.40;3.38;;;7.80;99.90;;;;;;5087119;28;20519;-59
2023/05/21 02:48:35;;;;;;;9.48;3.60;;;7.70;99.90;;;;;;5072558;28;20041;-55
2023/05/21 02:51:04;;;;;;;6.95;3.00;;;7.70;99.90;;;;;;5070524;28;20036;-56
2023/05/21 02:53:35;;;;;;;11.68;4.30;;;7.60;99.90;;;;;;5070374;28;20047;-58
2023/05/21 02:56:03;;;;;;;8.32;3.28;;;7.60;99.90;;;;;;5068870;28;20055;-57
2023/05/21 02:58:32;;;;;;;11.65;3.22;;;7.60;99.90;;;;;;5072892;28;20521;-55
2023/05/21 03:01:00;;;;;;;12.52;3.25;;;7.60;99.90;;;;;;5072119;28;20064;-55
2023/05/21 03:03:28;;;;;;;9.48;3.75;;;7.50;99.90;;;;;;5072363;28;20044;-57
2023/05/21 03:05:57;;;;;;;7.38;3.38;;;7.50;99.90;;;;;;5071607;28;20511;-56
2023/05/21 03:08:25;;;;;;;5.95;3.10;;;7.40;99.90;;;;;;5070367;28;20049;-58
2023/05/21 03:10:53;;;;;;;7.55;3.10;;;7.40;99.90;;;;;;5072594;28;20498;-57
2023/05/21 03:13:21;;;;;;;5.28;2.75;;;7.40;99.90;;;;;;5070872;28;20047;-57
2023/05/21 03:15:54;;;;;;;7.68;3.50;;;7.40;99.90;;;;;;5071299;28;20416;-57
2023/05/21 03:18:23;;;;;;;8.75;3.55;;;7.40;99.90;;;;;;5071412;28;20476;-56
2023/05/21 03:20:50;;;;;;;7.75;3.35;;;7.30;99.90;;;;;;5072319;28;20056;-57
2023/05/21 03:23:18;;;;;;;6.35;3.05;;;7.30;99.90;;;;;;5072021;28;20049;-57
2023/05/21 03:25:47;;;;;;;6.28;3.10;;;7.20;99.90;;;;;;5054744;28;20063;-56
2023/05/21 03:28:16;;;;;;;5.97;3.00;;;7.20;99.90;;;;;;5070926;28;20483;-56
2023/05/21 03:30:50;;;;;;;6.00;2.85;;;7.20;99.90;;;;;;5064260;28;20056;-57
2023/05/21 03:33:37;;;;;;;8.32;3.20;;;7.20;99.90;;;;;;5068139;28;20044;-57
2023/05/21 03:36:24;;;;;;;8.38;2.83;;;7.20;99.90;;;;;;5070371;28;20400;-58
2023/05/21 03:38:52;;;;;;;5.05;2.78;;;7.20;99.90;;;;;;5070288;28;20041;-56
2023/05/21 03:41:20;;;;;;;6.90;2.75;;;7.20;99.90;;;;;;5070019;28;20515;-56
2023/05/21 03:43:53;;;;;;;8.80;3.05;;;7.10;99.90;;;;;;5070859;28;20056;-56
2023/05/21 03:46:25;;;;;;;8.68;4.28;;;7.10;99.90;;;;;;5086847;28;20051;-58
2023/05/21 03:48:59;;;;;;;5.68;2.78;;;7.10;99.90;;;;;;5053609;28;20045;-57
2023/05/21 03:51:30;;;;;;;9.57;3.40;;;7.00;99.90;;;;;;5050647;28;20041;-57
2023/05/21 03:53:58;;;;;;;7.43;4.53;;;7.00;99.90;;;;;;5055219;28;20058;-58
2023/05/21 03:56:27;;;;;;;6.97;3.08;;;7.00;99.90;;;;;;5063728;28;20055;-57
2023/05/21 03:58:54;;;;;;;7.18;4.00;;;6.90;99.90;;;;;;5069140;28;20052;-58
2023/05/21 04:01:22;;;;;;;7.32;3.78;;;6.90;99.90;;;;;;5052905;28;20056;-56
2023/05/21 04:03:52;;;;;;;;;;;6.90;99.90;;;;;;5034857;28;20381;-57
2023/05/21 04:06:23;;;;;;;8.75;3.28;;;6.80;99.90;;;;;;5050619;28;19921;-58
2023/05/21 04:08:51;;;;;;;7.07;3.25;;;6.90;99.90;;;;;;5050428;28;20481;-56
2023/05/21 04:11:19;;;;;;;7.97;3.42;;;6.80;99.90;;;;;;5069768;28;20068;-57
2023/05/21 04:13:48;;;;;;;14.02;3.85;;;6.80;99.90;;;;;;5070681;28;20032;-56
2023/05/21 04:16:17;;;;;;;6.82;3.35;;;6.80;99.90;;;;;;5086005;28;20048;-57
2023/05/21 04:18:46;;;;;;;9.48;3.83;;;6.80;99.90;;;;;;5071027;28;20059;-56
2023/05/21 04:21:15;;;;;;;7.95;4.05;;;6.80;99.90;;;;;;5066705;28;20041;-58
2023/05/21 04:23:44;;;;;;;7.57;3.75;;;6.80;99.90;;;;;;5068977;28;20051;-57
2023/05/21 04:26:24;;;;;;;10.85;3.88;;;6.80;99.90;;;;;;5070107;28;20052;-58
2023/05/21 04:28:53;;;;;;;11.02;4.22;;;6.70;99.90;;;;;;5070275;28;20032;-58
2023/05/21 04:31:22;;;;;;;10.77;4.13;;;6.70;99.90;;;;;;5070246;28;20052;-58
2023/05/21 04:33:50;;;;;;;9.02;4.80;;;6.70;99.90;;;;;;5068016;28;20480;-58
2023/05/21 04:36:18;;;;;;;12.18;4.45;;;6.70;99.90;;;;;;5060285;28;20508;-57
2023/05/21 04:38:47;;;;;;;10.73;4.22;;;6.70;99.90;;;;;;5070255;28;20524;-58
2023/05/21 04:41:17;;;;;;;10.50;4.10;;;6.70;99.90;;;;;;5069939;28;20122;-59
2023/05/21 04:43:45;;;;;;;12.60;5.03;;;6.70;99.90;;;;;;5070162;28;20036;-57
2023/05/21 04:46:15;;;;;;;13.63;5.10;;;6.70;99.90;;;;;;5081098;28;20041;-58
2023/05/21 04:48:43;;;;;;;8.63;3.92;;;6.70;99.90;;;;;;5058308;28;20055;-58
2023/05/21 04:51:13;;;;;;;8.95;3.65;;;6.70;99.90;;;;;;5050421;28;20052;-58
2023/05/21 04:53:42;;;;;;;9.02;3.78;;;6.80;99.90;;;;;;5065181;28;20198;-57
2023/05/21 04:56:09;;;;;;;4.88;3.13;;;6.70;99.90;;;;;;5069400;28;20724;-57
2023/05/21 04:58:39;;;;;;;8.60;3.58;;;;;;;;;;5067759;28;20036;-58
2023/05/21 05:01:07;;;;;;;13.30;4.25;;;6.80;99.90;;;;;;5051780;28;20374;-58
2023/05/21 05:03:35;;;;;;;10.27;4.18;;;6.70;99.90;;;;;;5038462;28;20412;-56
2023/05/21 05:06:04;;;;;;;6.82;3.60;;;6.80;99.90;;;;;;5046991;28;20064;-56
2023/05/21 05:08:34;;;;;;;8.88;4.78;;;6.80;99.90;;;;;;5077428;28;20051;-57
2023/05/21 05:11:03;;;;;;;14.93;5.22;;;6.80;99.90;;;;;;5057517;28;20535;-57
2023/05/21 05:13:31;;;;;;;11.82;4.55;;;6.90;99.90;;;;;;5069336;28;20045;-56
2023/05/21 05:15:59;;;;;;;12.48;4.18;;;6.90;99.90;;;;;;5063572;28;20071;-57
2023/05/21 05:18:28;;;;;;;13.33;6.00;;;6.90;99.90;;;;;;5067637;28;20050;-58
2023/05/21 05:20:56;;;;;;;18.75;6.00;;;7.00;99.90;;;;;;5062027;28;20555;-57
2023/05/21 05:23:25;;;;;;;14.25;4.95;;;7.00;99.90;;;;;;5044054;28;20056;-57
2023/05/21 05:25:53;;;;;;;9.48;5.30;;;7.00;99.90;;;;;;5053643;28;20492;-57
2023/05/21 05:28:21;;;;;;;11.75;5.10;;;7.10;99.90;;;;;;5061601;28;20060;-56
2023/05/21 05:30:49;;;;;;;11.45;4.80;;;7.20;99.90;;;;;;5066873;28;20060;-57
2023/05/21 05:33:26;;;;;;;10.48;5.25;;;7.20;99.90;;;;;;5051090;28;20680;-57
2023/05/21 05:35:55;;;;;;;15.98;5.68;;;7.20;99.90;;;;;;5056236;28;20523;-57
2023/05/21 05:38:23;;;;;;;11.52;4.30;;;7.30;99.90;;;;;;5063362;28;20047;-56
2023/05/21 05:40:50;;;;;;;12.13;4.50;;;7.40;99.90;;;;;;5048703;28;20610;-57
2023/05/21 05:43:18;;;;;;;13.43;4.32;;;7.40;99.90;;;;;;5051651;28;20041;-56
2023/05/21 05:45:47;;;;;;;7.72;4.00;;;7.50;99.90;;;;;;5061934;28;20677;-57
2023/05/21 05:48:15;;;;;;;12.80;4.82;;;7.50;99.90;;;;;;5060950;28;20040;-58
2023/05/21 05:50:45;;;;;;;9.70;4.57;;;7.60;99.90;;;;;;5066042;28;20048;-59
2023/05/21 05:53:14;;;;;;;10.57;5.00;;;7.60;99.90;;;;;;5067067;28;20406;-57
2023/05/21 05:55:42;;;;;;;10.48;4.50;;;7.70;99.90;;;;;;5079235;28;20060;-56
2023/05/21 05:58:10;;;;;;;9.57;4.30;;;7.70;99.90;;;;;;5074188;28;20048;-58
2023/05/21 06:01:00;;;;;;;11.27;4.63;;;7.70;99.90;;;;;;5065281;28;20400;-58
2023/05/21 06:03:28;;;;;;;10.43;4.50;;;7.70;99.90;;;;;;5062792;28;20043;-58
2023/05/21 06:05:57;;;;;;;14.20;5.40;;;7.80;99.90;;;;;;5070476;28;20326;-58
2023/05/21 06:08:27;;;;;;;9.95;4.38;;;7.80;99.90;;;;;;5061303;28;20632;-58
2023/05/21 06:10:55;;;;;;;13.38;5.00;;;7.90;99.90;;;;;;5068266;28;20392;-56
2023/05/21 06:13:24;;;;;;;12.82;4.88;;;8.00;99.90;;;;;;5075171;28;20050;-57
2023/05/21 06:15:52;;;;;;;12.25;4.75;;;8.00;99.90;;;;;;5078321;28;20400;-56
2023/05/21 06:18:20;;;;;;;11.07;4.78;;;8.10;99.90;;;;;;5068541;28;20036;-55
2023/05/21 06:20:48;;;;;;;12.35;4.68;;;8.40;99.90;;;;;;5066488;28;20059;-56
2023/05/21 06:23:17;;;;;;;16.03;4.63;;;8.40;99.90;;;;;;5060345;28;20048;-56
2023/05/21 06:25:46;;;;;;;11.05;4.03;;;8.50;99.90;;;;;;5059231;28;20799;-57
2023/05/21 06:28:14;;;;;;;8.57;4.57;;;8.60;99.90;;;;;;5063266;28;20192;-57
2023/05/21 06:30:42;;;;;;;9.70;3.90;;;8.80;99.90;;;;;;5068083;28;20072;-56
2023/05/21 06:33:10;;;;;;;11.02;3.90;;;9.00;99.90;;;;;;5069193;28;20047;-57
2023/05/21 06:35:39;;;;;;;9.40;4.22;;;9.10;99.90;;;;;;5065017;28;20053;-56
2023/05/21 06:38:09;;;;;;;13.45;6.78;;;;;;;;;;5062999;28;20388;-58
2023/05/21 06:40:37;;;;;;;16.17;6.10;;;9.60;99.90;;;;;;5065527;28;20410;-57
2023/05/21 06:43:07;;;;;;;11.02;4.78;;;9.60;99.90;;;;;;5067305;28;20053;-58
2023/05/21 06:45:54;;;;;;;12.98;6.22;;;9.80;99.90;;;;;;5065876;28;20048;-57
2023/05/21 06:48:39;;;;;;;10.88;5.18;;;10.00;99.90;;;;;;5073490;28;20518;-57
2023/05/21 06:51:07;;;;;;;11.55;4.63;;;10.20;99.90;;;;;;5062281;28;20045;-57
2023/05/21 06:53:35;;;;;;;7.93;3.10;;;10.40;99.90;;;;;;5061200;28;20049;-58
2023/05/21 06:56:03;;;;;;;7.35;3.88;;;10.50;99.90;;;;;;5049610;28;20339;-58
2023/05/21 06:58:37;;;;;;;7.13;3.20;;;10.70;99.90;;;;;;5057198;28;20512;-59
2023/05/21 07:01:07;;;;;;;6.32;2.50;;;10.90;99.90;;;;;;5065979;28;20040;-58
2023/05/21 07:03:35;;;;;;;8.52;2.30;;;11.10;99.90;;;;;;5072719;28;20048;-57
2023/05/21 07:06:03;;;;;;;5.57;2.53;;;11.70;99.90;;;;;;5048301;28;20483;-56
2023/05/21 07:08:32;;;;;;;5.80;2.05;;;11.50;99.90;;;;;;5055834;28;20530;-57
2023/05/21 07:11:01;;;;;;;8.68;2.33;;;11.60;99.90;;;;;;5053868;28;20112;-56
2023/05/21 07:13:29;;;;;;;3.35;1.80;;;11.80;99.90;;;;;;5055932;28;20202;-57
2023/05/21 07:15:57;;;;;;;4.97;1.95;;;12.00;99.90;;;;;;5077735;28;20051;-58
2023/05/21 07:18:26;;;;;;;5.22;2.38;;;12.30;99.90;;;;;;5067623;28;20055;-58
2023/05/21 07:20:55;;;;;;;4.85;2.00;;;12.40;99.90;;;;;;5064115;28;20044;-59
2023/05/21 07:23:24;;;;;;;;;;;12.40;99.90;;;;;;5062079;28;20044;-57
2023/05/21 07:25:53;;;;;;;7.28;2.22;;;12.60;99.90;;;;;;5076313;28;19936;-56
2023/05/21 07:28:21;;;;;;;6.53;1.92;;;12.70;99.90;;;;;;5066685;28;20040;-58
2023/05/21 07:30:49;;;;;;;5.07;2.00;;;12.80;99.90;;;;;;5054135;28;20040;-58
2023/05/21 07:33:21;;;;;;;3.90;1.55;;;12.90;99.90;;;;;;5057733;28;20051;-56
2023/05/21 07:35:51;;;;;;;3.88;1.38;;;13.00;99.90;;;;;;5068412;28;20064;-57
2023/05/21 07:38:19;;;;;;;6.05;1.55;;;13.20;99.90;;;;;;5060053;28;20043;-56
2023/05/21 07:40:47;;;;;;;2.45;1.40;;;13.30;99.90;;;;;;5066920;28;20299;-57
2023/05/21 07:43:15;;;;;;;3.05;1.20;;;13.30;99.90;;;;;;5070183;28;20036;-57
2023/05/21 07:45:43;;;;;;;3.20;1.10;;;13.40;99.90;;;;;;5087325;28;20043;-58
2023/05/21 07:48:11;;;;;;;1.98;0.95;;;13.50;99.90;;;;;;5065102;28;20483;-56
2023/05/21 07:50:51;;;;;;;0.80;0.70;;;13.60;99.90;;;;;;5064884;28;20041;-58
2023/05/21 07:53:19;;;;;;;2.90;1.05;;;13.70;99.90;;;;;;5057372;28;20048;-57
2023/05/21 07:55:48;;;;;;;3.67;0.57;;;13.80;99.90;;;;;;5055233;28;20052;-58
2023/05/21 07:58:21;;;;;;;0.93;0.80;;;13.90;99.90;;;;;;5062308;28;20783;-58
2023/05/21 08:00:49;;;;;;;3.65;0.77;;;14.00;99.90;;;;;;5066824;28;20381;-57
2023/05/21 08:03:18;;;;;;;3.85;0.70;;;14.20;99.90;;;;;;5071299;28;20395;-57
2023/05/21 08:05:49;;;;;;;1.48;0.63;;;14.40;99.20;;;;;;5078223;28;20040;-57
2023/05/21 08:08:18;;;;;;;1.95;0.77;;;14.40;99.70;;;;;;5060211;28;20037;-57
2023/05/21 08:10:46;;;;;;;2.33;1.15;;;14.50;98.70;;;;;;5068212;28;20047;-58
2023/05/21 08:13:16;;;;;;;4.40;0.90;;;14.60;99.80;;;;;;5053540;28;20036;-59
2023/05/21 08:15:46;;;;;;;2.97;1.10;;;14.70;99.10;;;;;;5079450;28;20036;-59
2023/05/21 08:18:17;;;;;;;1.75;1.08;;;14.90;97.30;;;;;;5067251;28;20044;-57
2023/05/21 08:20:47;;;;;;;3.63;1.05;;;15.00;97.50;;;;;;5053433;28;20048;-57
2023/05/21 08:23:17;;;;;;;1.75;0.95;;;15.00;98.00;;;;;;5069476;28;20051;-58
2023/05/21 08:25:50;;;;;;;3.67;1.25;;;15.10;97.60;;;;;;5076986;28;20047;-57
2023/05/21 08:28:17;;;;;;;7.63;1.40;;;15.30;97.50;;;;;;5059108;28;20033;-58
2023/05/21 08:30:45;;;;;;;2.58;1.13;;;15.20;97.70;;;;;;5062047;28;20404;-59
2023/05/21 08:33:15;;;;;;;2.20;1.03;;;15.30;96.60;;;;;;5049565;28;20052;-59
2023/05/21 08:35:47;;;;;;;4.13;1.05;;;15.40;96.40;;;;;;5058857;28;20381;-58
2023/05/21 08:38:28;;;;;;;3.63;1.33;;;15.50;96.20;;;;;;5057820;28;20047;-58
2023/05/21 08:41:13;;;;;;;4.40;1.30;;;15.50;95.30;;;;;;5065369;28;20032;-57
2023/05/21 08:43:44;;;;;;;2.08;1.10;;;15.50;96.10;;;;;;5063463;28;20045;-58
2023/05/21 08:46:20;;;;;;;4.22;1.05;;;15.60;95.90;;;;;;5066736;28;20051;-58
2023/05/21 08:48:49;;;;;;;3.40;1.10;;;15.60;95.60;;;;;;5061002;28;20040;-57
2023/05/21 08:51:21;;;;;;;2.75;1.67;;;15.70;95.20;;;;;;5063345;28;20041;-58
2023/05/21 08:53:52;;;;;;;4.57;1.40;;;15.80;94.30;;;;;;5065480;28;20040;-57
2023/05/21 08:56:21;;;;;;;2.38;1.40;;;15.90;94.00;;;;;;5060154;28;20515;-57
2023/05/21 08:58:54;;;;;;;2.47;1.45;;;15.90;94.20;;;;;;5059078;28;20068;-57
2023/05/21 09:01:26;;;;;;;2.65;1.23;;;16.00;94.00;;;;;;5031122;28;20049;-58
2023/05/21 09:04:01;;;;;;;2.08;1.25;;;16.00;93.90;;;;;;5046850;28;20045;-58
2023/05/21 09:06:47;;;;;;;3.08;1.23;;;16.00;94.50;;;;;;5054136;28;20037;-57
2023/05/21 09:09:31;;;;;;;2.35;1.10;;;16.10;94.30;;;;;;5061773;28;20041;-61
2023/05/21 09:11:59;;;;;;;5.03;1.35;;;16.20;94.60;;;;;;5048042;28;20056;-59
2023/05/21 09:14:28;;;;;;;2.42;1.33;;;16.70;93.90;;;;;;5055881;28;20040;-59
2023/05/21 09:17:03;;;;;;;2.55;1.10;;;16.30;94.60;;;;;;5052714;28;20063;-58
2023/05/21 09:19:31;;;;;;;2.22;1.20;;;16.30;94.80;;;;;;5053399;28;20518;-57
2023/05/21 09:22:03;;;;;;;3.25;1.33;;;16.30;93.60;;;;;;5059482;28;20158;-59
2023/05/21 09:24:33;;;;;;;2.17;1.10;;;16.50;92.90;;;;;;5065492;28;20557;-58
2023/05/21 09:27:06;;;;;;;2.80;1.40;;;16.50;93.40;;;;;;5063843;28;20052;-58
2023/05/21 09:29:35;;;;;;;4.80;0.95;;;16.60;93.10;;;;;;5059088;28;21623;-58
2023/05/21 09:32:07;;;;;;;3.55;1.02;;;16.70;93.30;;;;;;5051991;28;20044;-57
2023/05/21 09:34:41;;;;;;;3.63;1.65;;;17.00;92.80;;;;;;5060882;28;20775;-59
2023/05/21 09:37:09;;;;;;;4.32;1.70;;;16.90;93.00;;;;;;5074330;28;20051;-58
2023/05/21 09:39:54;;;;;;;3.47;1.50;;;17.10;93.20;;;;;;5066343;28;20048;-58
2023/05/21 09:42:22;;;;;;;9.52;2.35;;;17.30;91.80;;;;;;5051998;28;20048;-59
2023/05/21 09:44:50;;;;;;;3.90;1.10;;;17.40;92.00;;;;;;5062957;28;20032;-59
2023/05/21 09:47:20;;;;;;;2.90;1.17;;;17.50;91.90;;;;;;5064909;28;20115;-59
2023/05/21 09:49:48;;;;;;;2.75;1.60;;;17.70;91.70;;;;;;5068736;28;20046;-59
2023/05/21 09:52:24;;;;;;;1.73;1.08;;;17.90;90.30;;;;;;5066981;28;20560;-58
2023/05/21 09:54:53;;;;;;;1.63;1.05;;;17.80;90.50;;;;;;5084136;28;20044;-58
2023/05/21 09:57:26;;;;;;;1.80;1.02;;;17.90;90.30;;;;;;5059414;28;20060;-58
2023/05/21 09:59:55;;;;;;;2.83;1.30;;;18.10;90.20;;;;;;5070789;28;20071;-58
2023/05/21 10:02:27;;;;;;;3.50;1.27;;;18.20;87.40;;;;;;5067468;28;20044;-58
2023/05/21 10:04:56;;;;;;;4.93;1.23;;;18.30;85.70;;;;;;5060392;28;20499;-59
2023/05/21 10:07:25;;;;;;;2.65;1.30;;;18.50;86.60;;;;;;5067306;28;20041;-59
2023/05/21 10:09:56;;;;;;;3.78;1.42;;;18.60;87.20;;;;;;5063728;28;20053;-59
2023/05/21 10:12:24;;;;;;;3.65;1.20;;;18.70;86.50;;;;;;5060590;28;20049;-58
2023/05/21 10:15:00;;;;;;;4.20;1.60;;;18.80;85.70;;;;;;5068772;28;20051;-59
2023/05/21 10:17:32;;;;;;;7.60;1.85;;;19.00;82.30;;;;;;5066114;28;20048;-60
2023/05/21 10:20:01;;;;;;;2.78;1.30;;;19.00;82.60;;;;;;5068531;28;20047;-58
2023/05/21 10:22:30;;;;;;;2.80;1.35;;;19.20;82.50;;;;;;5063004;28;20045;-60
2023/05/21 10:24:59;;;;;;;5.03;2.10;;;19.20;82.10;;;;;;5071423;28;20041;-57
2023/05/21 10:27:29;;;;;;;4.40;2.13;;;19.40;85.50;;;;;;5066367;28;20523;-58
2023/05/21 10:29:59;;;;;;;2.45;1.52;;;19.50;86.50;;;;;;5063323;28;20036;-60
2023/05/21 10:32:29;;;;;;;3.58;1.40;;;19.60;87.60;;;;;;5067129;28;20131;-58
2023/05/21 10:34:57;;;;;;;;;;;19.80;86.40;;;;;;5066881;28;20052;-59
2023/05/21 10:37:28;;;;;;;4.25;1.92;;;19.80;84.60;;;;;;5065295;28;19928;-60
2023/05/21 10:39:56;;;;;;;4.00;1.40;;;20.10;83.10;;;;;;5062538;28;20045;-60
2023/05/21 10:42:30;;;;;;;3.05;1.50;;;20.10;83.50;;;;;;5050567;28;20055;-60
2023/05/21 10:45:42;;;;;;;2.80;1.35;;;20.20;79.70;;;;;;5067093;28;20040;-60
2023/05/21 10:48:38;;;;;;;3.17;1.60;;;20.30;78.80;;;;;;5054424;28;20489;-59
2023/05/21 10:51:26;;;;;;;3.28;1.80;;;20.40;78.10;;;;;;5063259;28;20055;-58
2023/05/21 10:53:57;;;;;;;4.55;1.67;;;20.50;75.70;;;;;;5069621;28;20391;-59
2023/05/21 10:56:41;;;;;;;3.78;1.67;;;20.50;76.80;;;;;;5068448;28;20419;-59
2023/05/21 10:59:14;;;;;;;3.22;1.20;;;20.60;76.10;;;;;;5064694;28;20511;-59
2023/05/21 11:01:42;;;;;;;7.85;1.70;;;20.70;76.30;;;;;;5066197;28;20224;-59
2023/05/21 11:04:14;;;;;;;5.53;2.00;;;20.80;77.30;;;;;;5065886;28;20044;-59
2023/05/21 11:06:47;;;;;;;3.65;2.33;;;20.80;77.80;;;;;;5067124;28;20059;-59
2023/05/21 11:09:15;;;;;;;5.75;2.20;;;21.00;79.80;;;;;;5067338;28;20048;-58
2023/05/21 11:11:51;;;;;;;3.90;2.42;;;21.20;80.50;;;;;;5068798;28;20040;-59
2023/05/21 11:14:25;;;;;;;4.22;2.53;;;21.20;81.00;;;;;;5065476;28;20036;-59
2023/05/21 11:16:53;;;;;;;4.85;3.08;;;21.30;80.00;;;;;;5067080;28;20045;-58
2023/05/21 11:19:31;;;;;;;4.57;2.33;;;21.40;79.40;;;;;;5057023;28;20056;-58
2023/05/21 11:22:03;;;;;;;3.23;1.73;;;21.30;76.20;;;;;;5067228;28;20048;-59
2023/05/21 11:24:32;;;;;;;5.60;1.88;;;21.20;75.80;;;;;;5065619;28;20345;-58
2023/05/21 11:27:03;;;;;;;3.65;1.67;;;21.40;73.50;;;;;;5067520;28;20480;-59
2023/05/21 11:29:39;;;;;;;2.05;1.27;;;21.40;72.70;;;;;;5058270;28;20045;-60
2023/05/21 11:32:08;;;;;;;2.60;1.67;;;21.40;73.20;;;;;;5055678;28;20048;-59
2023/05/21 11:34:46;;;;;;;2.20;1.40;;;21.60;71.90;;;;;;5033114;28;20460;-59
2023/05/21 11:37:25;;;;;;;3.75;1.95;;;21.80;70.30;;;;;;5060826;28;20044;-60
2023/05/21 11:39:55;;;;;;;7.40;2.42;;;21.90;71.00;;;;;;5061437;28;20040;-61
2023/05/21 11:42:38;;;;;;;4.47;2.77;;;22.10;72.60;;;;;;5056972;28;20044;-61
2023/05/21 11:45:07;;;;;;;1.83;1.30;;;22.30;72.90;;;;;;5063250;28;20055;-60
2023/05/21 11:47:36;;;;;;;4.03;1.15;;;22.50;71.30;;;;;;5052169;28;20052;-61
2023/05/21 11:50:04;;;;;;;2.70;1.77;;;22.70;68.90;;;;;;5060073;28;20517;-60
2023/05/21 11:52:32;;;;;;;3.47;1.73;;;22.90;67.70;;;;;;5066261;28;20041;-58
2023/05/21 11:55:00;;;;;;;5.15;1.60;;;23.10;65.70;;;;;;5065782;28;20407;-60
2023/05/21 11:57:29;;;;;;;1.83;1.17;;;23.00;65.50;;;;;;5066727;28;20063;-59
2023/05/21 12:00:01;;;;;;;3.15;1.50;;;23.40;65.30;;;;;;5059059;28;20056;-59
2023/05/21 12:02:44;;;;;;;2.70;1.48;;;23.60;64.60;;;;;;5064404;28;20056;-59
2023/05/21 12:05:13;;;;;;;3.42;1.48;;;23.80;63.30;;;;;;5067397;28;20040;-60
2023/05/21 12:07:41;;;;;;;4.88;1.52;;;23.90;63.30;;;;;;5055144;28;20495;-59
2023/05/21 12:10:09;;;;;;;2.15;1.17;;;24.10;62.30;;;;;;5053435;28;20049;-61
2023/05/21 12:12:37;;;;;;;3.63;1.98;;;24.30;59.30;;;;;;5051208;28;20579;-58
2023/05/21 12:15:23;;;;;;;2.65;1.50;;;24.30;59.80;;;;;;5053705;28;20290;-60
2023/05/21 12:17:53;;;;;;;4.68;1.60;;;24.40;59.60;;;;;;5054414;28;20044;-58
2023/05/21 12:20:22;;;;;;;2.83;1.73;;;24.60;60.60;;;;;;5052531;28;20319;-63
2023/05/21 12:22:51;;;;;;;6.47;1.50;;;;;;;;;;5048754;28;20567;-60
2023/05/21 12:25:22;;;;;;;2.95;1.38;;;25.20;57.80;;;;;;5063119;28;20524;-61
2023/05/21 12:27:56;;;;;;;4.00;1.90;;;25.20;56.20;;;;;;5056871;28;20045;-61
2023/05/21 12:30:25;;;;;;;2.80;1.30;;;25.20;56.70;;;;;;5049895;28;20041;-59
2023/05/21 12:32:57;;;;;;;3.25;1.40;;;25.30;54.20;;;;;;5050932;28;20048;-58
2023/05/21 12:35:25;;;;;;;3.00;1.50;;;25.40;54.80;;;;;;5062780;28;20048;-58
2023/05/21 12:37:59;;;;;;;4.00;2.00;;;25.60;57.00;;;;;;5055224;28;20167;-60
2023/05/21 12:40:37;;;;;;;3.53;2.05;;;25.90;57.10;;;;;;5057796;28;20329;-59
2023/05/21 12:43:07;;;;;;;3.30;1.63;;;26.30;56.20;;;;;;5056099;28;20037;-59
2023/05/21 12:45:38;;;;;;;6.32;1.92;;;26.50;54.40;;;;;;5053740;28;20052;-61
2023/05/21 12:48:06;;;;;;;2.28;1.60;;;26.60;53.30;;;;;;5054460;28;20032;-62
2023/05/21 12:50:39;;;;;;;4.28;1.52;;;26.60;53.10;;;;;;5056704;28;21377;-60
2023/05/21 12:53:11;;;;;;;3.22;1.42;;;26.70;53.40;;;;;;5059446;28;20324;-60
2023/05/21 12:55:39;;;;;;;2.97;1.40;;;26.90;52.80;;;;;;5054478;28;20088;-63
2023/05/21 12:58:07;;;;;;;5.65;1.75;;;27.00;52.70;;;;;;5052546;28;20049;-63
2023/05/21 13:00:36;;;;;;;2.30;1.70;;;27.20;52.20;;;;;;5057532;28;20049;-60
2023/05/21 13:03:05;;;;;;;2.28;1.42;;;27.50;53.10;;;;;;5047589;28;20040;-59
2023/05/21 13:05:34;;;;;;;3.13;1.90;;;27.50;50.60;;;;;;5055240;28;20045;-60
2023/05/21 13:08:02;;;;;;;2.85;1.77;;;27.50;51.50;;;;;;5052253;28;20515;-59
2023/05/21 13:10:31;;;;;;;3.97;1.42;;;27.80;53.00;;;;;;5066129;28;20056;-59